Time;durP1;ratioP1;P1;durP2;ratioP2;P2;SDS_P1;SDS_P2;PMS_P1;PMS_P2;Temp;Humidity;BMP_temperature;BMP_pressure;BME280_temperature;BME280_humidity;BME280_pressure;Samples;Min_cycle;Max_cycle;Signal;HPM_P1;HPM_P2
2021/06/14 00:00:17;;;;;;;11.70;4.25;;;17.50;65.20;;;;;;5115751;28;20471;-77
2021/06/14 00:02:43;;;;;;;6.82;4.30;;;17.40;65.30;;;;;;5105877;28;20494;-77
2021/06/14 00:05:19;;;;;;;8.63;3.90;;;17.40;65.20;;;;;;5095666;28;20468;-77
2021/06/14 00:07:44;;;;;;;7.40;4.22;;;17.40;65.10;;;;;;5095432;28;20183;-78
2021/06/14 00:10:13;;;;;;;7.40;4.50;;;17.30;65.00;;;;;;5080260;28;20683;-77
2021/06/14 00:12:39;;;;;;;7.30;4.18;;;17.30;65.20;;;;;;5115987;28;20011;-77
2021/06/14 00:15:06;;;;;;;10.23;4.10;;;17.30;65.20;;;;;;5114002;28;20039;-77
2021/06/14 00:17:32;;;;;;;9.45;4.18;;;17.30;65.30;;;;;;5095174;28;20020;-77
2021/06/14 00:19:57;;;;;;;6.07;3.95;;;17.30;65.20;;;;;;5076997;28;20098;-77
2021/06/14 00:22:23;;;;;;;12.68;4.40;;;17.30;65.30;;;;;;5095791;28;20042;-77
2021/06/14 00:24:49;;;;;;;9.05;4.70;;;17.30;65.60;;;;;;5095318;28;20435;-77
2021/06/14 00:27:15;;;;;;;8.90;4.00;;;17.30;64.80;;;;;;5115623;28;20024;-77
2021/06/14 00:29:41;;;;;;;6.88;4.22;;;17.30;64.60;;;;;;5115598;28;20063;-77
2021/06/14 00:32:07;;;;;;;10.05;4.70;;;17.30;64.30;;;;;;5115228;28;20024;-77
2021/06/14 00:34:33;;;;;;;7.07;4.13;;;17.20;64.20;;;;;;5096894;28;20020;-77
2021/06/14 00:36:59;;;;;;;9.38;4.60;;;17.20;64.60;;;;;;5095256;28;20354;-77
2021/06/14 00:39:24;;;;;;;11.73;4.05;;;17.20;64.80;;;;;;5094967;28;20040;-77
2021/06/14 00:41:50;;;;;;;7.80;4.00;;;17.10;64.80;;;;;;5109773;28;20081;-77
2021/06/14 00:44:16;;;;;;;6.22;4.13;;;17.10;65.00;;;;;;5115157;28;20104;-77
2021/06/14 00:46:42;;;;;;;7.65;4.35;;;17.10;65.40;;;;;;5100385;28;20059;-77
2021/06/14 00:49:07;;;;;;;6.32;4.38;;;17.10;65.90;;;;;;5076420;28;20028;-77
2021/06/14 00:51:33;;;;;;;9.70;4.70;;;17.00;66.10;;;;;;5076492;28;20036;-77
2021/06/14 00:54:00;;;;;;;11.05;4.50;;;17.00;66.10;;;;;;5090516;28;20023;-77
2021/06/14 00:56:27;;;;;;;10.45;4.68;;;16.90;66.10;;;;;;5095489;28;20031;-77
2021/06/14 00:58:53;;;;;;;10.30;4.47;;;16.90;66.80;;;;;;5076436;28;20028;-77
2021/06/14 01:01:19;;;;;;;7.50;4.70;;;16.80;66.30;;;;;;5105076;28;20024;-77
2021/06/14 01:03:45;;;;;;;9.65;4.80;;;16.90;66.50;;;;;;5100598;28;20085;-77
2021/06/14 01:06:12;;;;;;;9.18;4.63;;;16.80;66.70;;;;;;5094279;28;20451;-77
2021/06/14 01:08:41;;;;;;;11.45;4.53;;;16.80;66.40;;;;;;5098580;28;20521;-77
2021/06/14 01:11:10;;;;;;;;;;;16.80;66.50;;;;;;5114715;28;20030;-77
2021/06/14 01:13:57;;;;;;;10.88;4.22;;;16.80;66.20;;;;;;5114400;28;19912;-77
2021/06/14 01:16:38;;;;;;;12.85;4.90;;;16.70;66.30;;;;;;5114386;28;21093;-77
2021/06/14 01:19:24;;;;;;;7.97;4.47;;;16.70;66.20;;;;;;5111518;28;20044;-77
2021/06/14 01:22:09;;;;;;;7.53;4.40;;;16.70;66.80;;;;;;5093976;28;20024;-77
2021/06/14 01:25:07;;;;;;;14.88;4.80;;;16.60;67.30;;;;;;5083016;28;20036;-77
2021/06/14 01:27:52;;;;;;;10.85;4.85;;;16.60;67.10;;;;;;5094339;28;20016;-78
2021/06/14 01:30:21;;;;;;;8.10;4.93;;;16.50;67.00;;;;;;5075700;28;20164;-77
2021/06/14 01:32:47;;;;;;;10.60;4.80;;;16.50;67.20;;;;;;5093725;28;20028;-77
2021/06/14 01:35:16;;;;;;;7.90;4.55;;;16.40;67.20;;;;;;5075468;28;20028;-77
2021/06/14 01:37:46;;;;;;;10.93;4.72;;;16.50;67.40;;;;;;5094151;28;20024;-78
2021/06/14 01:40:14;;;;;;;10.55;4.72;;;16.50;67.60;;;;;;5093831;28;20118;-77
2021/06/14 01:42:43;;;;;;;10.38;4.75;;;16.50;67.50;;;;;;5093733;28;20034;-77
2021/06/14 01:45:09;;;;;;;7.05;4.53;;;16.50;67.40;;;;;;5102373;28;20032;-77
2021/06/14 01:47:35;;;;;;;10.77;4.93;;;16.50;67.20;;;;;;5096015;28;20388;-77
2021/06/14 01:50:02;;;;;;;8.35;4.93;;;16.50;67.00;;;;;;5113846;28;20020;-77
2021/06/14 01:52:28;;;;;;;13.23;4.90;;;16.50;66.70;;;;;;5113944;28;20503;-77
2021/06/14 01:54:55;;;;;;;11.27;4.50;;;16.50;66.70;;;;;;5114258;28;20028;-77
2021/06/14 01:57:22;;;;;;;12.23;4.57;;;16.50;66.70;;;;;;5113826;28;20020;-77
2021/06/14 01:59:51;;;;;;;8.70;4.90;;;16.50;66.70;;;;;;5113641;28;20066;-77
2021/06/14 02:02:16;;;;;;;9.88;4.72;;;16.50;66.60;;;;;;5113618;28;20072;-77
2021/06/14 02:04:46;;;;;;;10.23;5.05;;;16.50;66.20;;;;;;5107798;28;20437;-77
2021/06/14 02:07:13;;;;;;;10.00;4.85;;;16.60;66.10;;;;;;5093279;28;20080;-77
2021/06/14 02:09:40;;;;;;;11.60;4.95;;;16.50;65.90;;;;;;5093271;28;20392;-77
2021/06/14 02:12:08;;;;;;;11.02;5.85;;;16.50;66.00;;;;;;5093315;28;20070;-77
2021/06/14 02:14:36;;;;;;;10.98;5.60;;;16.50;66.00;;;;;;5093078;28;20058;-73
2021/06/14 02:17:06;;;;;;;9.80;5.10;;;16.50;66.70;;;;;;5092866;28;20019;-73
2021/06/14 02:19:31;;;;;;;10.48;5.05;;;16.40;66.00;;;;;;5095473;28;20058;-73
2021/06/14 02:21:57;;;;;;;8.98;5.13;;;16.30;66.10;;;;;;5114716;28;20384;-73
2021/06/14 02:24:23;;;;;;;12.20;5.63;;;16.30;66.60;;;;;;5117116;28;20046;-73
2021/06/14 02:26:48;;;;;;;10.40;4.95;;;16.20;66.80;;;;;;5117155;28;20023;-73
2021/06/14 02:29:16;;;;;;;11.45;5.40;;;16.20;67.10;;;;;;5081469;28;20088;-73
2021/06/14 02:31:41;;;;;;;9.95;5.18;;;16.10;67.50;;;;;;5078802;28;20031;-74
2021/06/14 02:34:08;;;;;;;9.02;5.28;;;16.00;67.70;;;;;;5086191;28;20034;-73
2021/06/14 02:36:35;;;;;;;9.00;5.40;;;16.00;68.00;;;;;;5096628;28;20100;-73
2021/06/14 02:39:09;;;;;;;9.07;5.22;;;16.00;68.30;;;;;;5080083;28;20081;-72
2021/06/14 02:41:36;;;;;;;9.55;4.90;;;15.90;68.50;;;;;;5096659;28;20024;-73
2021/06/14 02:44:06;;;;;;;10.52;5.43;;;15.90;68.60;;;;;;5078558;28;20481;-73
2021/06/14 02:46:39;;;;;;;9.20;5.60;;;15.80;68.60;;;;;;5092021;28;20039;-73
2021/06/14 02:49:05;;;;;;;10.65;5.53;;;15.80;68.90;;;;;;5101273;28;20031;-73
2021/06/14 02:51:34;;;;;;;10.45;5.38;;;15.80;68.90;;;;;;5078463;28;20024;-73
2021/06/14 02:54:04;;;;;;;9.80;5.38;;;15.80;68.80;;;;;;5092305;28;20134;-73
2021/06/14 02:56:39;;;;;;;10.32;5.60;;;15.80;68.90;;;;;;5098920;28;20019;-73
2021/06/14 02:59:08;;;;;;;9.60;5.75;;;15.70;68.60;;;;;;5101123;28;20089;-73
2021/06/14 03:01:34;;;;;;;12.05;5.53;;;15.80;68.70;;;;;;5098660;28;20031;-73
2021/06/14 03:04:05;;;;;;;12.50;5.63;;;15.70;69.10;;;;;;5115365;28;20392;-73
2021/06/14 03:06:31;;;;;;;10.75;5.93;;;15.70;68.50;;;;;;5116486;28;20071;-73
2021/06/14 03:08:59;;;;;;;10.75;5.93;;;15.70;68.60;;;;;;5080728;28;20024;-74
2021/06/14 03:11:26;;;;;;;10.90;5.45;;;15.70;68.60;;;;;;5081762;28;20365;-73
2021/06/14 03:13:56;;;;;;;11.75;5.57;;;15.70;68.60;;;;;;5116273;28;20486;-73
2021/06/14 03:16:24;;;;;;;10.75;5.88;;;15.70;68.40;;;;;;5097817;28;20111;-73
2021/06/14 03:18:51;;;;;;;9.07;5.70;;;15.70;68.50;;;;;;5111082;28;20086;-73
2021/06/14 03:21:19;;;;;;;10.95;5.57;;;15.70;68.50;;;;;;5103673;28;20133;-73
2021/06/14 03:23:50;;;;;;;13.60;5.97;;;15.70;68.50;;;;;;5097629;28;20420;-73
2021/06/14 03:26:18;;;;;;;10.68;6.00;;;15.60;68.30;;;;;;5115764;28;20027;-73
2021/06/14 03:28:46;;;;;;;14.27;5.95;;;15.60;68.50;;;;;;5106075;28;20035;-73
2021/06/14 03:31:13;;;;;;;14.95;6.40;;;15.60;68.40;;;;;;5097764;28;20015;-73
2021/06/14 03:33:49;;;;;;;10.85;5.43;;;15.60;68.40;;;;;;5113577;28;20063;-73
2021/06/14 03:36:20;;;;;;;12.32;5.90;;;15.60;68.50;;;;;;5114872;28;20015;-73
2021/06/14 03:38:50;;;;;;;13.43;6.00;;;15.60;68.40;;;;;;5106407;28;20043;-73
2021/06/14 03:41:18;;;;;;;13.65;5.68;;;15.60;68.50;;;;;;5099065;28;20023;-73
2021/06/14 03:43:44;;;;;;;14.02;6.75;;;15.60;68.60;;;;;;5080585;28;20136;-73
2021/06/14 03:46:10;;;;;;;15.45;6.40;;;15.60;68.70;;;;;;5093786;28;20081;-73
2021/06/14 03:48:36;;;;;;;11.73;5.53;;;15.60;68.90;;;;;;5090604;28;20519;-73
2021/06/14 03:51:03;;;;;;;15.65;7.03;;;15.60;69.00;;;;;;5085164;28;20388;-73
2021/06/14 03:53:31;;;;;;;12.35;5.75;;;15.60;68.90;;;;;;5106071;28;20040;-73
2021/06/14 03:55:59;;;;;;;12.40;5.95;;;15.60;69.00;;;;;;5115510;28;20525;-73
2021/06/14 03:58:25;;;;;;;11.02;5.28;;;15.60;69.10;;;;;;5114533;28;20028;-73
2021/06/14 04:00:51;;;;;;;13.32;5.80;;;15.60;69.10;;;;;;5115254;28;20114;-73
2021/06/14 04:03:17;;;;;;;10.25;5.63;;;15.60;69.30;;;;;;5085666;28;20039;-73
2021/06/14 04:05:42;;;;;;;13.65;6.07;;;15.60;69.40;;;;;;5080061;28;20042;-73
2021/06/14 04:08:10;;;;;;;14.05;5.78;;;15.60;69.40;;;;;;5103211;28;20103;-73
2021/06/14 04:10:35;;;;;;;9.10;5.78;;;15.60;69.50;;;;;;5076765;28;20361;-73
2021/06/14 04:13:01;;;;;;;9.80;5.60;;;15.70;69.40;;;;;;5094737;28;20103;-73
2021/06/14 04:15:26;;;;;;;11.25;5.25;;;15.70;69.40;;;;;;5090096;28;20467;-73
2021/06/14 04:17:52;;;;;;;14.68;6.10;;;15.70;69.20;;;;;;5105178;28;20063;-73
2021/06/14 04:20:18;;;;;;;10.65;5.00;;;15.80;69.30;;;;;;5081007;28;20123;-73
2021/06/14 04:22:46;;;;;;;14.15;5.78;;;15.80;69.40;;;;;;5108765;28;20039;-73
2021/06/14 04:25:12;;;;;;;10.48;5.35;;;15.80;69.40;;;;;;5111695;28;20453;-73
2021/06/14 04:27:37;;;;;;;12.63;5.60;;;15.80;69.10;;;;;;5083472;28;20032;-73
2021/06/14 04:30:05;;;;;;;14.93;5.30;;;15.90;68.70;;;;;;5076065;28;20093;-73
2021/06/14 04:32:30;;;;;;;14.77;6.30;;;16.00;68.60;;;;;;5067589;28;20031;-73
2021/06/14 04:34:56;;;;;;;18.02;5.20;;;16.00;68.70;;;;;;5096203;28;20024;-73
2021/06/14 04:37:22;;;;;;;12.80;5.97;;;16.00;69.20;;;;;;5085104;28;20028;-73
2021/06/14 04:39:48;;;;;;;15.50;5.93;;;16.10;68.50;;;;;;5110057;28;20038;-74
2021/06/14 04:42:13;;;;;;;12.68;5.20;;;16.10;68.50;;;;;;5042915;28;20028;-73
2021/06/14 04:44:39;;;;;;;12.52;5.50;;;16.10;68.40;;;;;;5076417;28;20052;-72
2021/06/14 04:47:05;;;;;;;15.27;5.90;;;16.20;68.50;;;;;;5083551;28;20061;-72
2021/06/14 04:49:30;;;;;;;15.60;5.43;;;16.20;68.70;;;;;;5113164;28;20039;-72
2021/06/14 04:51:56;;;;;;;12.25;6.18;;;16.30;68.60;;;;;;5113595;28;20468;-73
2021/06/14 04:54:22;;;;;;;13.10;5.75;;;16.30;68.60;;;;;;5079526;28;20089;-73
2021/06/14 04:56:48;;;;;;;10.10;5.68;;;16.40;68.60;;;;;;5087029;28;20026;-73
2021/06/14 04:59:13;;;;;;;16.27;6.55;;;16.40;68.50;;;;;;5094523;28;20126;-73
2021/06/14 05:01:39;;;;;;;12.90;6.18;;;16.50;68.70;;;;;;5072977;28;20114;-73
2021/06/14 05:04:05;;;;;;;18.55;7.30;;;16.50;68.80;;;;;;5112963;28;20039;-73
2021/06/14 05:06:30;;;;;;;14.85;6.75;;;16.50;68.90;;;;;;5078782;28;20476;-73
2021/06/14 05:08:57;;;;;;;14.10;6.30;;;16.60;68.90;;;;;;5098512;28;20035;-73
2021/06/14 05:11:22;;;;;;;10.73;6.00;;;16.60;68.90;;;;;;5093715;28;20019;-72
2021/06/14 05:13:49;;;;;;;16.65;6.30;;;16.70;69.00;;;;;;5090249;28;20034;-72
2021/06/14 05:16:15;;;;;;;11.27;6.18;;;16.70;68.70;;;;;;5112167;28;20031;-70
2021/06/14 05:18:41;;;;;;;12.23;6.28;;;16.80;68.40;;;;;;5058496;28;20063;-72
2021/06/14 05:21:06;;;;;;;15.85;6.35;;;16.80;68.20;;;;;;5093917;28;20062;-72
2021/06/14 05:23:32;;;;;;;13.43;5.75;;;16.90;68.00;;;;;;5092948;28;20032;-73
2021/06/14 05:25:58;;;;;;;19.77;6.65;;;16.90;67.90;;;;;;5113173;28;20027;-72
2021/06/14 05:28:23;;;;;;;18.45;6.60;;;17.00;67.90;;;;;;5094355;28;20028;-73
2021/06/14 05:30:49;;;;;;;15.98;7.00;;;17.10;67.70;;;;;;5077415;28;20087;-73
2021/06/14 05:33:15;;;;;;;18.05;6.30;;;17.10;67.70;;;;;;5106980;28;20032;-73
2021/06/14 05:35:40;;;;;;;17.27;6.53;;;17.20;67.50;;;;;;5081915;28;20035;-74
2021/06/14 05:38:06;;;;;;;22.45;6.88;;;17.30;67.50;;;;;;5105210;28;20080;-73
2021/06/14 05:40:32;;;;;;;16.83;6.40;;;17.40;67.40;;;;;;5109468;28;20027;-73
2021/06/14 05:42:58;;;;;;;18.23;7.00;;;17.40;67.10;;;;;;5113301;28;20039;-74
2021/06/14 05:45:23;;;;;;;16.35;7.10;;;17.50;66.80;;;;;;5094329;28;20417;-74
2021/06/14 05:47:49;;;;;;;16.13;6.20;;;17.60;66.70;;;;;;5096429;28;20052;-74
2021/06/14 05:50:15;;;;;;;17.15;7.20;;;17.60;66.40;;;;;;5103954;28;20149;-74
2021/06/14 05:52:41;;;;;;;12.32;6.47;;;17.70;67.20;;;;;;5092934;28;20109;-74
2021/06/14 05:55:08;;;;;;;16.73;6.55;;;17.80;66.60;;;;;;5092736;28;20097;-74
2021/06/14 05:57:34;;;;;;;19.75;6.63;;;17.80;66.40;;;;;;5092015;28;20031;-74
2021/06/14 05:59:59;;;;;;;18.25;6.85;;;17.90;66.00;;;;;;5074660;28;20388;-74
2021/06/14 06:02:25;;;;;;;14.40;6.35;;;18.00;65.60;;;;;;5076086;28;20027;-74
2021/06/14 06:04:50;;;;;;;15.65;7.53;;;18.10;65.20;;;;;;5058016;28;20024;-74
2021/06/14 06:07:16;;;;;;;12.82;6.70;;;18.10;65.10;;;;;;5092889;28;20055;-74
2021/06/14 06:09:42;;;;;;;15.65;7.18;;;18.20;65.00;;;;;;5074701;28;20030;-74
2021/06/14 06:12:08;;;;;;;17.08;7.03;;;18.30;64.90;;;;;;5092744;28;20040;-74
2021/06/14 06:14:34;;;;;;;17.27;7.07;;;18.30;64.40;;;;;;5096127;28;20016;-74
2021/06/14 06:16:59;;;;;;;21.05;6.85;;;18.40;64.20;;;;;;5095032;28;20032;-74
2021/06/14 06:19:25;;;;;;;16.27;7.05;;;18.50;64.20;;;;;;5094851;28;20051;-74
2021/06/14 06:21:51;;;;;;;18.10;6.72;;;18.60;64.00;;;;;;5077915;28;20057;-74
2021/06/14 06:24:16;;;;;;;24.90;6.97;;;18.70;63.80;;;;;;5112722;28;20043;-74
2021/06/14 06:26:42;;;;;;;17.25;6.57;;;18.80;63.40;;;;;;5094637;28;20131;-74
2021/06/14 06:29:07;;;;;;;17.70;6.43;;;18.90;63.10;;;;;;5112817;28;20027;-74
2021/06/14 06:31:34;;;;;;;22.73;6.20;;;19.00;62.60;;;;;;5113015;28;20024;-74
2021/06/14 06:33:59;;;;;;;19.27;7.05;;;19.10;62.10;;;;;;5112852;28;20073;-74
2021/06/14 06:36:25;;;;;;;17.65;5.93;;;19.20;61.50;;;;;;5094615;28;20480;-73
2021/06/14 06:38:51;;;;;;;14.95;6.38;;;19.40;61.30;;;;;;5112980;28;20110;-74
2021/06/14 06:41:16;;;;;;;20.17;6.15;;;19.50;60.80;;;;;;5106071;28;20032;-74
2021/06/14 06:43:42;;;;;;;18.73;6.32;;;19.60;60.40;;;;;;5081647;28;20098;-74
2021/06/14 06:46:09;;;;;;;21.05;6.47;;;19.70;60.20;;;;;;5085229;28;20035;-74
2021/06/14 06:48:35;;;;;;;15.60;6.15;;;19.90;59.90;;;;;;5059543;28;20365;-74
2021/06/14 06:51:01;;;;;;;19.33;6.03;;;20.00;59.70;;;;;;5098103;28;20027;-74
2021/06/14 06:53:28;;;;;;;17.20;5.93;;;20.20;59.50;;;;;;5086240;28;20025;-74
2021/06/14 06:55:54;;;;;;;15.55;5.80;;;20.30;59.30;;;;;;5093368;28;20493;-74
2021/06/14 06:58:19;;;;;;;19.83;5.80;;;20.50;58.80;;;;;;5092413;28;20054;-74
2021/06/14 07:00:48;;;;;;;17.10;6.40;;;20.60;58.60;;;;;;5092488;28;20024;-74
2021/06/14 07:03:14;;;;;;;11.60;6.28;;;20.80;58.10;;;;;;5093698;28;20028;-74
2021/06/14 07:05:40;;;;;;;13.55;5.53;;;20.90;58.00;;;;;;5057716;28;20085;-74
2021/06/14 07:08:06;;;;;;;16.25;5.75;;;21.00;57.40;;;;;;5083853;28;20031;-74
2021/06/14 07:10:32;;;;;;;11.52;5.97;;;21.10;57.10;;;;;;5098273;28;20031;-74
2021/06/14 07:12:59;;;;;;;17.75;6.43;;;21.20;57.20;;;;;;5081529;28;20032;-74
2021/06/14 07:15:25;;;;;;;14.30;6.65;;;21.40;57.10;;;;;;5098061;28;20054;-74
2021/06/14 07:17:51;;;;;;;13.30;5.30;;;21.40;56.80;;;;;;5098004;28;20031;-74
2021/06/14 07:20:17;;;;;;;13.27;5.70;;;21.60;56.20;;;;;;5116319;28;20492;-74
2021/06/14 07:22:43;;;;;;;12.65;5.50;;;21.70;55.30;;;;;;5099951;28;20024;-74
2021/06/14 07:25:10;;;;;;;15.40;5.65;;;21.80;54.90;;;;;;5086178;28;20035;-74
2021/06/14 07:27:36;;;;;;;17.45;5.43;;;21.90;54.60;;;;;;5096007;28;20027;-73
2021/06/14 07:30:05;;;;;;;12.60;5.15;;;22.00;54.20;;;;;;5099536;28;20032;-73
2021/06/14 07:32:31;;;;;;;13.25;5.03;;;22.00;53.80;;;;;;5115695;28;20595;-74
2021/06/14 07:34:56;;;;;;;11.45;4.80;;;22.10;54.10;;;;;;5105782;28;20028;-73
2021/06/14 07:37:22;;;;;;;11.63;4.65;;;22.20;54.20;;;;;;5097163;28;20028;-74
2021/06/14 07:39:48;;;;;;;15.20;4.95;;;22.40;53.50;;;;;;5103487;28;20024;-74
2021/06/14 07:42:13;;;;;;;15.85;5.07;;;22.50;53.20;;;;;;5077448;28;20036;-74
2021/06/14 07:44:39;;;;;;;12.13;4.90;;;22.70;52.70;;;;;;5088573;28;20031;-74
2021/06/14 07:47:05;;;;;;;11.52;5.25;;;22.80;52.00;;;;;;5097570;28;20115;-74
2021/06/14 07:49:31;;;;;;;9.98;4.93;;;22.90;52.00;;;;;;5104944;28;20099;-74
2021/06/14 07:51:57;;;;;;;12.85;5.50;;;23.00;51.80;;;;;;5077411;28;20537;-74
2021/06/14 07:54:23;;;;;;;12.50;6.00;;;23.10;51.00;;;;;;5106584;28;20028;-75
2021/06/14 07:56:49;;;;;;;12.77;5.72;;;23.20;50.50;;;;;;5097466;28;20020;-74
2021/06/14 07:59:15;;;;;;;13.15;5.65;;;23.20;50.80;;;;;;5115183;28;20024;-73
2021/06/14 08:01:41;;;;;;;14.02;5.57;;;23.30;50.60;;;;;;5114997;28;20034;-73
2021/06/14 08:04:08;;;;;;;18.52;5.65;;;23.40;50.20;;;;;;5110528;28;20016;-74
2021/06/14 08:06:34;;;;;;;13.05;6.07;;;23.60;50.50;;;;;;5058548;28;20523;-74
2021/06/14 08:09:02;;;;;;;15.85;5.50;;;23.70;50.40;;;;;;5101277;28;20447;-74
2021/06/14 08:11:28;;;;;;;15.23;5.28;;;23.90;50.90;;;;;;5114026;28;20236;-74
2021/06/14 08:13:54;;;;;;;12.38;5.28;;;24.00;50.60;;;;;;5063880;28;20024;-75
2021/06/14 08:16:20;;;;;;;14.57;5.15;;;24.20;49.50;;;;;;5097181;28;20030;-74
2021/06/14 08:18:48;;;;;;;11.32;5.00;;;24.30;48.90;;;;;;5114338;28;21211;-74
2021/06/14 08:21:39;;;;;;;11.95;5.13;;;24.40;48.70;;;;;;5114133;28;20085;-74
2021/06/14 08:26:49;;;;;;;15.80;4.55;;;24.60;48.00;;;;;;5114934;28;20081;-74
2021/06/14 08:29:15;;;;;;;10.85;4.28;;;24.80;48.00;;;;;;5096584;28;20507;-74
2021/06/14 08:31:41;;;;;;;11.02;3.90;;;24.90;48.60;;;;;;5114993;28;20031;-74
2021/06/14 08:34:09;;;;;;;10.73;3.80;;;25.00;46.40;;;;;;5114670;28;20052;-74
2021/06/14 08:36:35;;;;;;;7.57;3.40;;;25.00;45.90;;;;;;5096538;28;20480;-74
2021/06/14 08:39:02;;;;;;;7.10;3.53;;;25.10;46.30;;;;;;5098526;28;20032;-74
2021/06/14 08:41:27;;;;;;;10.90;3.28;;;25.20;45.90;;;;;;5101382;28;20038;-74
2021/06/14 08:43:56;;;;;;;9.90;3.40;;;25.30;44.80;;;;;;5114641;28;20028;-74
2021/06/14 08:46:22;;;;;;;10.35;3.17;;;25.40;45.20;;;;;;5114617;28;20020;-75
2021/06/14 08:48:50;;;;;;;7.55;3.50;;;25.50;45.20;;;;;;5113786;28;20024;-74
2021/06/14 08:51:16;;;;;;;8.63;3.40;;;25.70;44.90;;;;;;5114481;28;20035;-74
2021/06/14 08:53:42;;;;;;;9.02;3.38;;;25.80;44.10;;;;;;5096004;28;20031;-75
2021/06/14 08:56:08;;;;;;;11.27;3.95;;;25.90;44.60;;;;;;5114394;28;20431;-75
2021/06/14 08:58:34;;;;;;;10.43;3.50;;;26.00;44.50;;;;;;5096381;28;20055;-74
2021/06/14 09:01:00;;;;;;;10.60;3.38;;;26.10;43.90;;;;;;5114491;28;20042;-75
2021/06/14 09:03:27;;;;;;;12.23;3.67;;;26.30;44.00;;;;;;5113592;28;21039;-74
2021/06/14 09:05:54;;;;;;;12.35;3.60;;;26.40;43.80;;;;;;5114325;28;20109;-74
2021/06/14 09:08:24;;;;;;;6.68;3.22;;;26.40;43.40;;;;;;5096135;28;20037;-74
2021/06/14 09:10:51;;;;;;;10.30;3.15;;;26.50;43.60;;;;;;5095548;28;20503;-75
2021/06/14 09:13:25;;;;;;;9.73;3.45;;;26.60;43.10;;;;;;5113754;28;20028;-75
2021/06/14 09:15:52;;;;;;;7.53;2.80;;;26.70;43.80;;;;;;5110968;28;20054;-75
2021/06/14 09:18:25;;;;;;;7.55;3.10;;;26.70;43.40;;;;;;5074975;28;20024;-75
2021/06/14 09:20:57;;;;;;;13.82;3.47;;;26.80;43.30;;;;;;5087394;28;20050;-75
2021/06/14 09:23:24;;;;;;;6.80;3.05;;;26.80;43.20;;;;;;5102865;28;20492;-75
2021/06/14 09:25:50;;;;;;;10.90;3.53;;;26.90;42.90;;;;;;5100609;28;20051;-74
2021/06/14 09:28:15;;;;;;;6.80;3.25;;;27.10;42.60;;;;;;5093128;28;20056;-74
2021/06/14 09:30:41;;;;;;;6.95;2.95;;;27.20;41.60;;;;;;5109743;28;20105;-74
2021/06/14 09:33:09;;;;;;;7.05;2.38;;;27.30;41.50;;;;;;5112849;28;20422;-75
2021/06/14 09:35:41;;;;;;;10.38;3.42;;;27.40;41.10;;;;;;5113787;28;20042;-74
2021/06/14 09:38:14;;;;;;;8.65;2.97;;;27.40;40.20;;;;;;5094892;28;20026;-75
2021/06/14 09:40:42;;;;;;;4.97;2.95;;;27.50;40.70;;;;;;5109263;28;20047;-75
2021/06/14 09:43:19;;;;;;;;;;;27.50;39.70;;;;;;5114056;28;20028;-74
2021/06/14 09:45:45;;;;;;;8.20;3.15;;;27.60;40.30;;;;;;5094925;28;19911;-75
2021/06/14 09:48:20;;;;;;;11.25;2.70;;;27.70;40.20;;;;;;5113582;28;20107;-75
2021/06/14 09:50:47;;;;;;;7.47;2.60;;;27.80;40.00;;;;;;5091546;28;20031;-74
2021/06/14 09:53:15;;;;;;;6.70;2.23;;;27.80;39.30;;;;;;5097935;28;20097;-75
2021/06/14 09:55:43;;;;;;;5.55;2.78;;;27.80;38.60;;;;;;5104717;28;20293;-75
2021/06/14 09:58:23;;;;;;;5.20;2.25;;;27.90;38.80;;;;;;5113235;28;20028;-75
2021/06/14 10:00:55;;;;;;;4.10;2.38;;;27.90;38.00;;;;;;5113278;28;20027;-75
2021/06/14 10:03:24;;;;;;;10.00;2.72;;;27.90;37.90;;;;;;5113192;28;20110;-74
2021/06/14 10:05:52;;;;;;;7.55;2.97;;;28.00;38.30;;;;;;5094980;28;20498;-74
2021/06/14 10:08:30;;;;;;;10.52;2.97;;;27.90;38.90;;;;;;5089007;28;20431;-75
2021/06/14 10:11:07;;;;;;;7.25;3.10;;;28.00;39.60;;;;;;5103830;28;20023;-75
2021/06/14 10:13:34;;;;;;;8.85;3.17;;;28.10;40.30;;;;;;5104966;28;20020;-74
2021/06/14 10:16:09;;;;;;;6.20;2.72;;;28.30;41.00;;;;;;5077112;28;20491;-74
2021/06/14 10:24:37;;;;;;;9.82;3.53;;;28.70;40.60;;;;;;5106253;28;20039;-74
2021/06/14 10:27:03;;;;;;;11.15;3.17;;;28.70;40.40;;;;;;5113129;28;20571;-74
2021/06/14 10:29:29;;;;;;;8.43;3.47;;;28.80;40.30;;;;;;5094605;28;20212;-75
2021/06/14 10:31:55;;;;;;;11.25;3.95;;;28.80;40.70;;;;;;5095205;28;20031;-75
2021/06/14 10:34:22;;;;;;;10.13;3.67;;;28.80;40.20;;;;;;5112290;28;20452;-75
2021/06/14 10:36:54;;;;;;;8.17;3.97;;;28.90;39.90;;;;;;5102808;28;20020;-75
2021/06/14 10:39:23;;;;;;;11.95;3.95;;;29.00;40.90;;;;;;5102533;28;20276;-75
2021/06/14 10:41:49;;;;;;;9.25;3.67;;;29.10;41.30;;;;;;5095606;28;20036;-75
2021/06/14 10:44:14;;;;;;;7.80;3.30;;;29.10;40.60;;;;;;5116029;28;20020;-75
2021/06/14 10:46:45;;;;;;;9.18;3.13;;;29.20;40.40;;;;;;5097515;28;20092;-75
2021/06/14 10:49:13;;;;;;;8.50;3.70;;;29.30;40.10;;;;;;5083894;28;20032;-75
2021/06/14 10:51:40;;;;;;;;;;;29.30;40.20;;;;;;5117683;28;20024;-75
2021/06/14 10:54:08;;;;;;;7.65;3.10;;;29.30;39.30;;;;;;5082222;28;20261;-75
2021/06/14 10:56:35;;;;;;;9.52;3.25;;;29.30;40.20;;;;;;5110343;28;20073;-75
2021/06/14 10:59:04;;;;;;;10.05;3.67;;;29.30;40.00;;;;;;5098960;28;20019;-75
2021/06/14 11:01:31;;;;;;;8.95;3.70;;;29.40;40.70;;;;;;5117016;28;20068;-75
2021/06/14 11:03:57;;;;;;;11.43;2.97;;;29.40;39.50;;;;;;5081242;28;20035;-75
2021/06/14 11:06:31;;;;;;;9.10;3.30;;;29.40;40.00;;;;;;5096577;28;20028;-75
2021/06/14 11:09:09;;;;;;;8.55;3.38;;;29.50;40.40;;;;;;5096368;28;20103;-75
2021/06/14 11:11:53;;;;;;;11.57;3.30;;;29.50;40.30;;;;;;5078148;28;20043;-75
2021/06/14 11:14:32;;;;;;;12.55;3.35;;;29.60;39.70;;;;;;5104484;28;20028;-75
2021/06/14 11:17:00;;;;;;;10.95;3.35;;;29.60;39.50;;;;;;5078119;28;20027;-75
2021/06/14 11:19:34;;;;;;;11.75;3.53;;;29.60;39.70;;;;;;5096244;28;20028;-75
2021/06/14 11:22:00;;;;;;;6.13;3.33;;;29.60;39.30;;;;;;5078082;28;20079;-75
2021/06/14 11:24:36;;;;;;;12.77;3.65;;;29.70;39.70;;;;;;5115637;28;20036;-75
2021/06/14 11:27:04;;;;;;;11.85;3.67;;;29.80;39.20;;;;;;5116339;28;20023;-75
2021/06/14 11:29:50;;;;;;;7.70;2.90;;;29.90;38.50;;;;;;5098022;28;20027;-76
2021/06/14 11:32:19;;;;;;;13.20;3.05;;;30.10;38.20;;;;;;5096437;28;20024;-75
2021/06/14 11:34:48;;;;;;;8.45;2.85;;;30.20;38.30;;;;;;5095896;28;20104;-75
2021/06/14 11:37:14;;;;;;;9.77;2.65;;;30.30;38.40;;;;;;5105621;28;20027;-75
2021/06/14 11:39:40;;;;;;;9.32;2.53;;;30.40;37.90;;;;;;5088920;28;20032;-75
2021/06/14 11:42:15;;;;;;;11.73;2.92;;;30.40;38.40;;;;;;5102245;28;20051;-75
2021/06/14 11:44:56;;;;;;;5.10;2.60;;;30.50;38.20;;;;;;5116112;28;20024;-75
2021/06/14 11:47:27;;;;;;;7.85;2.58;;;30.60;37.00;;;;;;5114303;28;20031;-75
2021/06/14 11:49:59;;;;;;;6.13;2.70;;;30.70;37.30;;;;;;5097005;28;20507;-75
2021/06/14 11:52:37;;;;;;;5.70;2.50;;;30.80;36.80;;;;;;5098469;28;20046;-75
2021/06/14 11:55:08;;;;;;;5.35;2.60;;;30.90;36.60;;;;;;5114744;28;20023;-75
2021/06/14 11:57:40;;;;;;;10.23;2.92;;;31.00;36.20;;;;;;5114040;28;20024;-75
2021/06/14 12:00:11;;;;;;;3.42;2.20;;;31.00;35.20;;;;;;5115909;28;20031;-75
2021/06/14 12:02:37;;;;;;;3.78;2.15;;;31.10;35.30;;;;;;5106256;28;20031;-75
2021/06/14 12:05:07;;;;;;;7.28;2.45;;;31.10;35.10;;;;;;5092765;28;20034;-75
2021/06/14 12:07:36;;;;;;;8.00;2.80;;;31.10;36.20;;;;;;5096540;28;20065;-75
2021/06/14 12:10:05;;;;;;;7.40;2.30;;;31.10;36.30;;;;;;5115666;28;20024;-75
2021/06/14 12:12:31;;;;;;;4.70;2.42;;;31.10;35.30;;;;;;5097765;28;20591;-81
2021/06/14 12:14:57;;;;;;;8.55;2.55;;;31.20;36.20;;;;;;5115971;28;20028;-81
2021/06/14 12:17:25;;;;;;;6.97;2.50;;;31.20;37.10;;;;;;5115899;28;20379;-81
2021/06/14 12:19:52;;;;;;;4.75;2.55;;;31.10;36.40;;;;;;5097692;28;20026;-81
2021/06/14 12:22:22;;;;;;;4.55;2.40;;;31.20;35.90;;;;;;5105306;28;20044;-81
2021/06/14 12:24:48;;;;;;;5.65;2.58;;;31.20;35.70;;;;;;5115606;28;20492;-81
2021/06/14 12:27:14;;;;;;;7.20;2.30;;;31.30;35.50;;;;;;5115662;28;20043;-81
2021/06/14 12:29:40;;;;;;;11.70;2.42;;;31.40;36.20;;;;;;5115575;28;20028;-81
2021/06/14 12:32:11;;;;;;;4.40;1.90;;;31.40;37.20;;;;;;5098230;28;20023;-81
2021/06/14 12:34:39;;;;;;;6.50;1.95;;;31.50;36.00;;;;;;5115476;28;20020;-81
2021/06/14 12:37:10;;;;;;;12.43;2.40;;;31.50;35.70;;;;;;5115574;28;20391;-81
2021/06/14 12:39:37;;;;;;;4.82;2.10;;;31.40;34.70;;;;;;5115578;28;20039;-81
2021/06/14 12:42:04;;;;;;;3.80;2.10;;;31.50;35.00;;;;;;5115407;28;20065;-80
2021/06/14 12:44:29;;;;;;;4.90;2.20;;;31.50;35.10;;;;;;5115327;28;20042;-80
2021/06/14 12:46:55;;;;;;;3.75;1.88;;;31.50;35.40;;;;;;5096980;28;20027;-81
2021/06/14 12:49:29;;;;;;;8.48;2.28;;;31.50;35.90;;;;;;5115129;28;20031;-81
2021/06/14 12:51:55;;;;;;;6.03;2.13;;;31.60;35.20;;;;;;5106184;28;20028;-81